createdAt,value
2018-12-19T00:03:20.179Z,16.47
2018-12-19T00:08:26.387Z,16.40
2018-12-19T00:13:30.527Z,16.93
2018-12-19T00:18:34.653Z,16.40
2018-12-19T00:23:39.131Z,17.37
2018-12-19T00:28:43.661Z,17.83
2018-12-19T00:33:49.747Z,17.03
2018-12-19T00:38:53.867Z,17.23
2018-12-19T00:43:57.992Z,16.97
2018-12-19T00:49:16.429Z,16.80
2018-12-19T00:54:21.416Z,16.20
2018-12-19T00:59:25.980Z,15.80
2018-12-19T01:04:30.104Z,16.30
2018-12-19T01:09:34.624Z,16.97
2018-12-19T01:14:39.133Z,15.83
2018-12-19T01:19:43.243Z,16.33
2018-12-19T01:24:47.670Z,15.70
2018-12-19T01:29:51.805Z,17.23
2018-12-19T01:34:55.911Z,16.27
2018-12-19T01:40:00.386Z,15.87
2018-12-19T01:45:06.426Z,15.77
2018-12-19T01:50:11.502Z,15.60
2018-12-19T01:55:16.016Z,15.63
2018-12-19T02:00:24.742Z,14.43
2018-12-19T02:05:29.234Z,15.80
2018-12-19T02:10:33.557Z,14.87
2018-12-19T02:15:38.416Z,15.53
2018-12-19T02:20:42.996Z,14.73
2018-12-19T02:25:47.112Z,14.87
2018-12-19T02:30:51.931Z,15.87
2018-12-19T02:35:56.437Z,15.40
2018-12-19T02:41:01.192Z,14.60
2018-12-19T02:46:06.026Z,14.60
2018-12-19T03:10:21.572Z,14.53
2018-12-19T03:15:26.067Z,14.23
2018-12-19T03:20:30.536Z,14.07
2018-12-19T03:25:34.992Z,13.50
2018-12-19T03:30:39.411Z,13.80
2018-12-19T03:35:44.247Z,14.13
2018-12-19T03:40:48.439Z,13.53
2018-12-19T03:45:53.488Z,14.30
2018-12-19T03:50:58.363Z,13.27
2018-12-19T03:56:03.414Z,13.53
2018-12-19T04:01:08.159Z,12.73
2018-12-19T04:06:12.771Z,13.03
2018-12-19T05:13:14.057Z,13.70
2018-12-19T05:18:18.787Z,12.37
2018-12-19T05:23:22.995Z,12.82
2018-12-19T05:28:27.502Z,13.60
2018-12-19T05:33:31.927Z,14.97
2018-12-19T05:38:36.446Z,13.10
2018-12-19T05:43:40.975Z,13.37
2018-12-19T05:48:45.493Z,13.33
2018-12-19T05:54:42.463Z,14.30
2018-12-19T05:59:59.160Z,13.20
2018-12-19T06:05:03.743Z,13.27
2018-12-19T06:10:08.225Z,13.00
2018-12-19T06:15:13.399Z,12.73
2018-12-19T06:20:18.009Z,13.17
2018-12-19T06:25:22.483Z,13.60
2018-12-19T06:30:27.942Z,13.20
2018-12-19T06:35:32.019Z,12.73
2018-12-19T06:40:36.875Z,13.33
2018-12-19T06:45:40.971Z,13.23
2018-12-19T06:50:45.479Z,12.90
2018-12-19T06:55:50.023Z,13.40
2018-12-19T07:00:54.504Z,14.27
2018-12-19T07:05:59.051Z,12.97
2018-12-19T07:11:04.492Z,13.37
2018-12-19T07:16:12.501Z,13.80
2018-12-19T07:21:17.287Z,14.33
2018-12-19T07:26:22.194Z,14.80
2018-12-19T07:31:27.272Z,13.60
2018-12-19T07:36:31.795Z,15.13
2018-12-19T07:41:36.799Z,13.93
2018-12-19T07:46:41.280Z,15.13
2018-12-19T07:51:46.242Z,14.50
2018-12-19T07:56:50.766Z,14.77
2018-12-19T08:01:54.839Z,12.73
2018-12-19T08:06:59.704Z,13.83
2018-12-19T08:12:04.666Z,15.38
2018-12-19T08:23:28.452Z,14.33
2018-12-19T08:33:47.194Z,14.37
2018-12-19T08:38:51.567Z,14.67
2018-12-19T08:43:55.648Z,15.03
2018-12-19T08:49:00.498Z,13.83
2018-12-19T08:54:05.641Z,14.47
2018-12-19T08:59:09.709Z,13.87
2018-12-19T09:04:14.729Z,15.03
2018-12-19T09:09:19.237Z,13.87
2018-12-19T09:14:23.783Z,13.90
2018-12-19T09:19:27.883Z,14.73
2018-12-19T09:24:32.420Z,13.73
2018-12-19T09:29:37.586Z,13.33
2018-12-19T09:34:41.818Z,14.77
2018-12-19T09:39:45.959Z,14.60
2018-12-19T09:44:50.434Z,14.90
2018-12-19T09:49:54.700Z,16.03
2018-12-19T09:54:58.839Z,14.30
2018-12-19T10:00:04.208Z,13.30
2018-12-19T10:05:10.400Z,14.68
2018-12-19T10:10:15.896Z,14.00
2018-12-19T10:15:22.178Z,14.03
2018-12-19T10:20:26.292Z,13.33
2018-12-19T10:25:30.762Z,12.47
2018-12-19T10:43:22.874Z,13.13
2018-12-19T10:48:27.683Z,13.40
2018-12-19T10:53:31.767Z,12.87
2018-12-19T10:58:37.025Z,13.53
2018-12-19T11:03:41.129Z,13.10
2018-12-19T11:08:45.583Z,13.50
2018-12-19T11:13:50.031Z,13.57
2018-12-19T11:18:54.471Z,13.63
2018-12-19T11:23:59.232Z,13.17
2018-12-19T11:29:04.830Z,13.37
2018-12-19T11:34:09.742Z,12.77
2018-12-19T11:39:14.255Z,12.65
2018-12-19T12:34:07.753Z,13.40
2018-12-19T12:39:12.151Z,12.60
2018-12-19T12:44:16.985Z,12.23
2018-12-19T12:49:21.434Z,12.73
2018-12-19T12:54:25.921Z,13.10
2018-12-19T12:59:29.972Z,12.53
2018-12-19T13:04:34.042Z,13.50
2018-12-19T13:09:38.140Z,12.33
2018-12-19T13:14:42.911Z,12.55
2018-12-19T13:19:47.384Z,12.23
2018-12-19T13:24:51.856Z,11.83
2018-12-19T13:29:56.348Z,12.07
2018-12-19T13:35:35.247Z,11.50
2018-12-19T13:40:39.790Z,12.47
2018-12-19T13:45:44.271Z,11.63
2018-12-19T13:50:48.747Z,11.93
2018-12-19T13:55:52.819Z,12.50
2018-12-19T14:00:57.286Z,12.93
2018-12-19T14:06:02.188Z,12.23
2018-12-19T14:11:06.906Z,11.87
2018-12-19T14:16:11.323Z,12.13
2018-12-19T14:21:16.212Z,12.17
2018-12-19T14:26:20.707Z,13.60
2018-12-19T14:31:25.810Z,12.57
2018-12-19T14:36:30.314Z,13.37
2018-12-19T14:41:34.539Z,12.93
2018-12-19T14:46:39.056Z,12.53
2018-12-19T14:51:44.202Z,12.53
2018-12-19T14:56:48.412Z,12.17
2018-12-19T15:01:53.567Z,12.23
2018-12-19T15:06:58.074Z,13.10
2018-12-19T15:12:03.636Z,12.77
2018-12-19T15:17:13.664Z,13.20
2018-12-19T15:22:13.971Z,11.90
2018-12-19T15:27:18.484Z,12.50
2018-12-19T15:32:22.748Z,13.23
2018-12-19T15:37:47.993Z,13.53
2018-12-19T15:42:52.071Z,13.07
2018-12-19T15:47:56.212Z,13.43
2018-12-19T15:53:00.854Z,13.00
2018-12-19T15:58:05.721Z,12.57
2018-12-19T16:03:10.111Z,13.13
2018-12-19T16:08:14.287Z,12.47
2018-12-19T16:13:18.720Z,13.03
2018-12-19T16:18:23.642Z,12.63
2018-12-19T16:23:28.129Z,13.20
2018-12-19T16:28:32.535Z,12.47
2018-12-19T16:33:37.383Z,12.77
2018-12-19T16:38:45.752Z,12.67
2018-12-19T16:44:02.913Z,11.97
2018-12-19T16:49:07.890Z,12.70
2018-12-19T16:54:13.068Z,13.18
2018-12-19T16:59:17.528Z,12.97
2018-12-19T17:04:22.106Z,12.98
2018-12-19T17:09:27.259Z,13.47
2018-12-19T17:14:32.060Z,13.40
2018-12-19T17:19:36.522Z,12.97
2018-12-19T17:24:41.597Z,12.70
2018-12-19T17:29:45.707Z,13.80
2018-12-19T17:34:50.201Z,14.10
2018-12-19T17:39:54.925Z,13.83
2018-12-19T17:45:00.193Z,13.70
2018-12-19T17:50:06.774Z,13.23
2018-12-19T17:55:11.728Z,13.63
2018-12-19T18:00:16.524Z,13.03
2018-12-19T18:05:20.714Z,14.53
2018-12-19T18:10:25.202Z,14.40
2018-12-19T18:15:31.096Z,14.27
2018-12-19T18:20:35.602Z,14.23
2018-12-19T18:25:40.048Z,13.33
2018-12-19T18:30:44.159Z,13.97
2018-12-19T18:35:48.711Z,14.87
2018-12-19T18:40:53.133Z,15.23
2018-12-19T18:45:57.287Z,14.03
2018-12-19T18:51:03.113Z,15.43
2018-12-19T18:56:08.142Z,14.87
2018-12-19T19:01:13.279Z,15.30
2018-12-19T19:06:17.909Z,15.03
2018-12-19T19:11:22.396Z,15.53
2018-12-19T19:16:26.591Z,15.87
2018-12-19T19:21:30.684Z,15.30
2018-12-19T19:26:35.186Z,15.63
2018-12-19T19:31:39.897Z,15.83
2018-12-19T19:36:44.416Z,15.63
2018-12-19T19:41:49.322Z,15.33
2018-12-19T20:24:38.683Z,16.97
2018-12-19T20:29:43.120Z,16.83
2018-12-19T20:34:47.482Z,17.50
2018-12-19T20:39:51.655Z,16.33
2018-12-19T20:44:56.114Z,16.87
2018-12-19T20:50:01.355Z,16.20
2018-12-19T20:55:07.063Z,16.27
2018-12-19T21:00:11.852Z,17.07
2018-12-19T21:05:16.732Z,17.60
2018-12-19T21:10:21.466Z,16.60
2018-12-19T21:15:26.849Z,16.75
2018-12-19T21:20:30.953Z,17.00
